Time;durP1;ratioP1;P1;durP2;ratioP2;P2;SDS_P1;SDS_P2;PMS_P1;PMS_P2;Temp;Humidity;BMP_temperature;BMP_pressure;BME280_temperature;BME280_humidity;BME280_pressure;Samples;Min_cycle;Max_cycle;Signal;HPM_P1;HPM_P2
2022/08/17 00:00:33;;;;;;;;;;;;;;;27.04;52.29;99124.50;2087253;28;19973;-40
2022/08/17 00:01:34;;;;;;;;;;;;;;;27.04;52.60;99129.19;2085786;28;19939;-40
2022/08/17 00:02:34;;;;;;;;;;;;;;;27.03;52.34;99133.03;2083059;28;19917;-40
2022/08/17 00:03:37;;;;;;;;;;;;;;;27.02;52.64;99128.56;2095941;28;19926;-40
2022/08/17 00:04:37;;;;;;;;;;;;;;;27.01;52.44;99124.09;2086695;28;20307;-40
2022/08/17 00:05:43;;;;;;;;;;;;;;;27.01;52.45;99126.88;2086230;28;20211;-40
2022/08/17 00:06:43;;;;;;;;;;;;;;;27.00;52.63;99127.94;2087752;28;19917;-40
2022/08/17 00:07:43;;;;;;;;;;;;;;;27.00;52.45;99130.69;2082732;28;19921;-40
2022/08/17 00:08:51;;;;;;;;;;;;;;;26.99;52.23;99142.84;2083901;28;19920;-40
2022/08/17 00:09:51;;;;;;;;;;;;;;;26.99;52.38;99145.59;2088553;28;19958;-40
2022/08/17 00:10:52;;;;;;;;;;;;;;;26.98;52.31;99141.16;2084146;28;19938;-40
2022/08/17 00:11:52;;;;;;;;;;;;;;;26.97;52.33;99139.44;2088340;28;20027;-40
2022/08/17 00:12:52;;;;;;;;;;;;;;;26.95;52.18;99136.94;2086875;28;19967;-40
2022/08/17 00:13:57;;;;;;;;;;;;;;;26.94;52.10;99141.59;2090314;28;19986;-40
2022/08/17 00:14:57;;;;;;;;;;;;;;;26.94;52.18;99141.59;2088669;28;19966;-40
2022/08/17 00:15:59;;;;;;;;;;;;;;;26.93;52.21;99139.91;2085936;28;20055;-40
2022/08/17 00:17:02;;;;;;;;;;;;;;;26.92;51.97;99143.75;2086186;28;19930;-40
2022/08/17 00:18:02;;;;;;;;;;;;;;;26.92;52.21;99154.81;2086443;28;19916;-40
2022/08/17 00:19:06;;;;;;;;;;;;;;;26.90;51.92;99143.13;2087732;28;20440;-40
2022/08/17 00:20:08;;;;;;;;;;;;;;;26.90;51.91;99142.28;2090019;28;19932;-40
2022/08/17 00:21:09;;;;;;;;;;;;;;;26.88;52.01;99139.72;2085757;28;20030;-40
2022/08/17 00:22:09;;;;;;;;;;;;;;;26.88;52.20;99136.97;2086601;28;19978;-40
2022/08/17 00:23:14;;;;;;;;;;;;;;;26.88;52.19;99134.19;2087574;28;19920;-40
2022/08/17 00:24:15;;;;;;;;;;;;;;;26.87;51.78;99126.13;2089224;28;19915;-40
2022/08/17 00:25:18;;;;;;;;;;;;;;;26.87;51.98;99135.25;2087896;28;20527;-40
2022/08/17 00:26:19;;;;;;;;;;;;;;;26.87;51.99;99143.56;2089852;28;19993;-40
2022/08/17 00:27:20;;;;;;;;;;;;;;;26.87;51.89;99140.78;2086090;28;19924;-40
2022/08/17 00:28:20;;;;;;;;;;;;;;;26.88;51.83;99141.66;2087169;28;19971;-40
2022/08/17 00:29:21;;;;;;;;;;;;;;;26.88;51.65;99141.66;2086527;28;19924;-40
2022/08/17 00:30:21;;;;;;;;;;;;;;;26.88;51.85;99142.50;2090623;28;19923;-40
2022/08/17 00:31:21;;;;;;;;;;;;;;;26.87;51.80;99134.41;2086807;28;19922;-40
2022/08/17 00:32:22;;;;;;;;;;;;;;;26.88;51.58;99125.06;2091663;28;19924;-40
2022/08/17 00:33:23;;;;;;;;;;;;;;;26.89;51.51;99129.50;2092520;28;19920;-39
2022/08/17 00:34:24;;;;;;;;;;;;;;;26.89;51.79;99127.59;2086067;28;19954;-40
2022/08/17 00:35:26;;;;;;;;;;;;;;;26.89;51.72;99118.44;2085886;28;20645;-40
2022/08/17 00:36:27;;;;;;;;;;;;;;;26.90;51.60;99109.09;2086453;28;20557;-40
2022/08/17 00:37:27;;;;;;;;;;;;;;;26.87;51.47;99091.00;2089314;28;19919;-40
2022/08/17 00:38:28;;;;;;;;;;;;;;;26.88;51.53;99103.78;2086551;28;19916;-40
2022/08/17 00:39:28;;;;;;;;;;;;;;;26.88;51.61;99080.81;2077227;28;19940;-40
2022/08/17 00:40:29;;;;;;;;;;;;;;;26.88;51.28;99081.66;2079586;28;19909;-40
2022/08/17 00:41:29;;;;;;;;;;;;;;;26.89;51.49;99082.50;2093632;28;19916;-40
2022/08/17 00:42:29;;;;;;;;;;;;;;;26.88;51.41;99076.13;2087274;28;20018;-40
2022/08/17 00:43:32;;;;;;;;;;;;;;;26.87;51.22;99079.97;2086797;28;20815;-40
2022/08/17 00:44:32;;;;;;;;;;;;;;;26.87;51.25;99070.81;2084480;28;20297;-40
2022/08/17 00:45:33;;;;;;;;;;;;;;;26.87;51.38;99063.38;2088021;28;19920;-40
2022/08/17 00:46:35;;;;;;;;;;;;;;;26.87;51.33;99063.38;2087580;28;19967;-41
2022/08/17 00:47:35;;;;;;;;;;;;;;;26.86;51.07;99056.16;2085810;28;19927;-40
2022/08/17 00:48:36;;;;;;;;;;;;;;;26.85;51.04;99048.94;2088988;28;19952;-40
2022/08/17 00:49:36;;;;;;;;;;;;;;;26.86;51.33;99041.50;2085596;28;19913;-40
2022/08/17 00:50:40;;;;;;;;;;;;;;;26.86;50.92;99041.50;2086000;28;20391;-40
2022/08/17 00:51:52;;;;;;;;;;;;;;;26.84;51.14;99036.19;2088533;28;20787;-40
2022/08/17 00:52:53;;;;;;;;;;;;;;;26.83;51.15;99039.19;2090490;28;19912;-40
2022/08/17 00:53:56;;;;;;;;;;;;;;;26.84;50.81;99052.75;2088759;28;20392;-40
2022/08/17 00:54:57;;;;;;;;;;;;;;;26.86;50.82;99078.28;2084837;28;20377;-40
2022/08/17 00:56:00;;;;;;;;;;;;;;;26.85;50.64;99076.59;2088771;28;19916;-40
2022/08/17 00:57:06;;;;;;;;;;;;;;;26.86;50.78;99069.97;2087694;28;19984;-40
2022/08/17 00:58:06;;;;;;;;;;;;;;;26.85;50.70;99054.47;2084113;28;20222;-40
2022/08/17 00:59:07;;;;;;;;;;;;;;;26.84;50.62;99052.75;2083705;28;19923;-40
2022/08/17 01:00:08;;;;;;;;;;;;;;;26.83;50.86;99045.56;2086889;28;20322;-41
2022/08/17 01:01:09;;;;;;;;;;;;;;;26.84;50.50;99058.28;2087398;28;19916;-40
2022/08/17 01:02:11;;;;;;;;;;;;;;;26.82;50.51;99057.66;2086102;28;19917;-40
2022/08/17 01:03:14;;;;;;;;;;;;;;;26.80;50.66;99050.69;2085187;28;19981;-40
2022/08/17 01:04:15;;;;;;;;;;;;;;;26.79;50.84;99038.78;2087411;28;19924;-40
2022/08/17 01:05:18;;;;;;;;;;;;;;;26.78;50.80;99017.75;2093807;28;20342;-40
2022/08/17 01:06:19;;;;;;;;;;;;;;;26.76;50.72;99006.06;2085821;28;19927;-40
2022/08/17 01:07:22;;;;;;;;;;;;;;;26.76;50.68;99003.31;2083431;28;19913;-40
2022/08/17 01:08:24;;;;;;;;;;;;;;;26.75;50.84;98998.81;2079607;28;19926;-40
2022/08/17 01:09:25;;;;;;;;;;;;;;;26.75;50.83;98996.06;2088069;28;19916;-40
2022/08/17 01:10:29;;;;;;;;;;;;;;;26.76;50.60;98995.00;2086906;28;20014;-40
2022/08/17 01:11:31;;;;;;;;;;;;;;;26.76;50.70;99003.31;2085572;28;20235;-40
2022/08/17 01:12:33;;;;;;;;;;;;;;;26.76;50.40;99000.53;2088491;28;19920;-40
2022/08/17 01:13:35;;;;;;;;;;;;;;;26.78;50.38;99005.81;2087477;28;19954;-41
2022/08/17 01:14:36;;;;;;;;;;;;;;;26.78;50.31;99009.44;2090447;28;19923;-40
2022/08/17 01:15:40;;;;;;;;;;;;;;;26.79;50.32;98999.22;2087554;28;19912;-40
2022/08/17 01:16:40;;;;;;;;;;;;;;;26.79;50.61;98986.25;2091600;28;20039;-39
2022/08/17 01:17:42;;;;;;;;;;;;;;;26.80;50.50;98978.78;2088136;28;19923;-40
2022/08/17 01:18:44;;;;;;;;;;;;;;;26.79;50.69;98977.97;2091037;28;20777;-40
2022/08/17 01:19:44;;;;;;;;;;;;;;;26.81;50.58;98972.22;2088208;28;20130;-41
2022/08/17 01:20:49;;;;;;;;;;;;;;;26.81;50.41;98953.69;2085989;28;20011;-40
2022/08/17 01:21:54;;;;;;;;;;;;;;;26.80;50.37;98946.50;2091059;28;19962;-40
2022/08/17 01:22:54;;;;;;;;;;;;;;;26.79;50.31;98930.97;2086727;28;19916;-40
2022/08/17 01:23:55;;;;;;;;;;;;;;;26.79;50.37;98924.59;2084314;28;19959;-40
2022/08/17 01:24:57;;;;;;;;;;;;;;;26.78;50.34;98915.47;2085608;28;19912;-40
2022/08/17 01:26:00;;;;;;;;;;;;;;;26.78;50.22;98898.88;2084805;28;19916;-40
2022/08/17 01:27:01;;;;;;;;;;;;;;;26.79;50.21;98883.97;2089356;28;19913;-40
2022/08/17 01:28:01;;;;;;;;;;;;;;;26.78;50.33;98876.75;2090971;28;19916;-40
2022/08/17 01:29:03;;;;;;;;;;;;;;;26.78;50.24;98885.06;2087912;28;19970;-40
2022/08/17 01:30:07;;;;;;;;;;;;;;;26.77;50.27;98902.69;2086530;28;19924;-40
2022/08/17 01:31:08;;;;;;;;;;;;;;;26.78;50.47;98918.22;2086139;28;19923;-40
2022/08/17 01:32:08;;;;;;;;;;;;;;;26.79;50.27;98932.88;2083004;28;20364;-40
2022/08/17 01:33:10;;;;;;;;;;;;;;;26.79;50.41;98943.94;2087688;28;19983;-39
2022/08/17 01:34:12;;;;;;;;;;;;;;;26.78;50.23;98976.28;2086481;28;20415;-40
2022/08/17 01:35:13;;;;;;;;;;;;;;;26.79;50.25;98991.78;2089308;28;19920;-40
2022/08/17 01:36:13;;;;;;;;;;;;;;;26.79;50.16;99011.13;2092585;28;19950;-40
2022/08/17 01:37:14;;;;;;;;;;;;;;;26.80;50.22;99017.50;2086884;28;19908;-40
2022/08/17 01:38:14;;;;;;;;;;;;;;;26.81;50.08;99028.34;2088503;28;20685;-40
2022/08/17 01:39:31;;;;;;;;;;;;;;;26.81;50.01;99031.09;2084425;28;19917;-40
2022/08/17 01:40:37;;;;;;;;;;;;;;;26.80;50.16;99029.44;2086201;28;19909;-40
2022/08/17 01:41:39;;;;;;;;;;;;;;;26.80;50.16;99028.56;2085295;28;19916;-41
2022/08/17 01:42:58;;;;;;;;;;;;;;;26.80;50.04;99018.38;2085033;28;20408;-40
2022/08/17 01:44:01;;;;;;;;;;;;;;;26.79;50.37;99016.66;2084153;28;19908;-39
2022/08/17 01:45:06;;;;;;;;;;;;;;;26.80;50.38;99009.22;2088048;28;19917;-40
2022/08/17 01:46:06;;;;;;;;;;;;;;;26.80;50.36;99010.06;2085804;28;19924;-40
2022/08/17 01:47:07;;;;;;;;;;;;;;;26.79;50.38;99005.59;2086101;28;20283;-41
2022/08/17 01:48:08;;;;;;;;;;;;;;;26.79;50.04;99016.66;2088192;28;19960;-40
2022/08/17 01:49:09;;;;;;;;;;;;;;;26.79;50.04;99016.66;2077433;28;19925;-40
2022/08/17 01:50:18;;;;;;;;;;;;;;;26.78;50.12;99016.88;2077614;28;19952;-40
2022/08/17 01:51:19;;;;;;;;;;;;;;;26.78;50.36;99009.44;2090118;28;19916;-40
2022/08/17 01:52:20;;;;;;;;;;;;;;;26.78;50.30;99014.97;2085314;28;20730;-40
2022/08/17 01:53:41;;;;;;;;;;;;;;;26.78;50.07;99012.22;2089357;28;19920;-40
2022/08/17 01:54:43;;;;;;;;;;;;;;;26.78;50.10;99020.50;2085478;28;20034;-42
2022/08/17 01:55:51;;;;;;;;;;;;;;;26.79;50.19;99018.59;2091715;28;19965;-40
2022/08/17 01:56:52;;;;;;;;;;;;;;;26.79;50.07;99026.88;2086238;28;19979;-40
2022/08/17 01:57:53;;;;;;;;;;;;;;;26.78;50.17;99026.03;2083411;28;19916;-40
2022/08/17 01:58:53;;;;;;;;;;;;;;;26.79;50.09;99027.72;2090927;28;20447;-40
2022/08/17 01:59:54;;;;;;;;;;;;;;;26.78;50.36;99042.63;2083916;28;20487;-40
2022/08/17 02:00:54;;;;;;;;;;;;;;;26.78;50.12;99053.69;2086192;28;19909;-40
2022/08/17 02:01:54;;;;;;;;;;;;;;;26.79;50.18;99054.53;2084243;28;19927;-40
2022/08/17 02:02:55;;;;;;;;;;;;;;;26.78;50.07;99055.56;2086737;28;19920;-39
2022/08/17 02:03:55;;;;;;;;;;;;;;;26.77;50.07;99063.03;2082798;28;19912;-40
2022/08/17 02:04:56;;;;;;;;;;;;;;;26.77;50.10;99056.66;2085342;28;20303;-39
2022/08/17 02:05:56;;;;;;;;;;;;;;;26.76;50.24;99050.28;2084996;28;19919;-40
2022/08/17 02:06:57;;;;;;;;;;;;;;;26.77;50.20;99051.13;2084845;28;20887;-40
2022/08/17 02:07:58;;;;;;;;;;;;;;;26.77;50.31;99057.50;2086405;28;19916;-39
2022/08/17 02:08:59;;;;;;;;;;;;;;;26.76;50.04;99050.28;2091373;28;19923;-40
2022/08/17 02:09:59;;;;;;;;;;;;;;;26.78;50.37;99055.56;2090504;28;20397;-40
2022/08/17 02:10:59;;;;;;;;;;;;;;;26.76;50.26;99050.28;2092474;28;20010;-40
2022/08/17 02:12:02;;;;;;;;;;;;;;;26.78;50.29;99061.97;2087809;28;19920;-40
2022/08/17 02:13:03;;;;;;;;;;;;;;;26.77;50.25;99057.50;2087942;28;20615;-39
2022/08/17 02:14:04;;;;;;;;;;;;;;;26.76;50.21;99061.34;2091585;28;19916;-40
2022/08/17 02:15:05;;;;;;;;;;;;;;;26.78;50.32;99058.34;2088721;28;19978;-40
2022/08/17 02:16:05;;;;;;;;;;;;;;;26.76;50.31;99060.50;2084959;28;19917;-40
2022/08/17 02:17:05;;;;;;;;;;;;;;;26.77;50.01;99068.56;2086079;28;19974;-40
2022/08/17 02:18:06;;;;;;;;;;;;;;;26.77;50.35;99074.09;2088866;28;19916;-40
2022/08/17 02:19:08;;;;;;;;;;;;;;;26.77;50.20;99063.03;2082654;28;19921;-39
2022/08/17 02:20:09;;;;;;;;;;;;;;;26.76;50.20;99068.81;2083978;28;19960;-39
2022/08/17 02:21:09;;;;;;;;;;;;;;;26.77;50.18;99063.03;2085873;28;19913;-40
2022/08/17 02:22:10;;;;;;;;;;;;;;;26.78;50.04;99064.75;2085300;28;20277;-40
2022/08/17 02:23:11;;;;;;;;;;;;;;;26.78;50.11;99073.03;2085800;28;19908;-39
2022/08/17 02:24:17;;;;;;;;;;;;;;;26.78;50.23;99064.75;2092064;28;19911;-40
2022/08/17 02:25:19;;;;;;;;;;;;;;;26.78;50.07;99075.81;2090047;28;19917;-41
2022/08/17 02:26:19;;;;;;;;;;;;;;;26.80;50.07;99089.38;2085080;28;19912;-40
2022/08/17 02:27:20;;;;;;;;;;;;;;;26.79;50.21;99088.53;2087245;28;20274;-40
2022/08/17 02:28:20;;;;;;;;;;;;;;;26.78;49.93;99081.34;2097950;28;19923;-40
2022/08/17 02:29:20;;;;;;;;;;;;;;;26.79;50.22;99077.47;2083999;28;20656;-40
2022/08/17 02:30:21;;;;;;;;;;;;;;;26.79;49.94;99087.69;2088832;28;19916;-39
2022/08/17 02:31:21;;;;;;;;;;;;;;;26.79;50.15;99093.22;2086853;28;19991;-40
2022/08/17 02:32:22;;;;;;;;;;;;;;;26.78;49.93;99092.38;2083332;28;19981;-40
2022/08/17 02:33:23;;;;;;;;;;;;;;;26.79;49.94;99094.06;2087769;28;19920;-40
2022/08/17 02:34:24;;;;;;;;;;;;;;;26.78;49.95;99097.91;2085087;28;19921;-39
2022/08/17 02:35:24;;;;;;;;;;;;;;;26.79;50.04;99096.84;2083337;28;19920;-40
2022/08/17 02:36:24;;;;;;;;;;;;;;;26.78;50.03;99089.63;2080392;28;19956;-40
2022/08/17 02:37:26;;;;;;;;;;;;;;;26.78;49.93;99100.69;2080241;28;19925;-40
2022/08/17 02:38:26;;;;;;;;;;;;;;;26.77;50.07;99096.22;2093531;28;19937;-40
2022/08/17 02:39:27;;;;;;;;;;;;;;;26.77;50.15;99090.69;2089131;28;20358;-40
2022/08/17 02:40:27;;;;;;;;;;;;;;;26.78;50.00;99100.69;2079773;28;19924;-40
2022/08/17 02:41:27;;;;;;;;;;;;;;;26.75;49.95;99095.56;2082978;28;19920;-40
2022/08/17 02:42:30;;;;;;;;;;;;;;;26.77;50.13;99095.38;2085783;28;19924;-40
2022/08/17 02:43:30;;;;;;;;;;;;;;;26.75;50.04;99097.50;2087459;28;19924;-40
2022/08/17 02:44:31;;;;;;;;;;;;;;;26.75;50.14;99094.75;2086682;28;19913;-40
2022/08/17 02:45:31;;;;;;;;;;;;;;;26.75;49.97;99101.09;2085648;28;19917;-40
2022/08/17 02:46:32;;;;;;;;;;;;;;;26.75;49.97;99105.78;2082932;28;20283;-40
2022/08/17 02:47:33;;;;;;;;;;;;;;;26.75;49.91;99100.25;2089141;28;20695;-40
2022/08/17 02:48:33;;;;;;;;;;;;;;;26.74;50.05;99096.66;2088392;28;19920;-41
2022/08/17 02:49:34;;;;;;;;;;;;;;;26.74;49.96;99104.97;2091290;28;19916;-40
2022/08/17 02:50:34;;;;;;;;;;;;;;;26.73;49.92;99101.34;2084442;28;20768;-40
2022/08/17 02:51:35;;;;;;;;;;;;;;;26.74;49.98;99107.72;2079103;28;19927;-40
2022/08/17 02:52:36;;;;;;;;;;;;;;;26.75;50.07;99103.03;2085849;28;19990;-39
2022/08/17 02:53:37;;;;;;;;;;;;;;;26.74;49.92;99102.19;2084432;28;19916;-40
2022/08/17 02:54:37;;;;;;;;;;;;;;;26.75;50.13;99103.03;2092357;28;19920;-40
2022/08/17 02:55:39;;;;;;;;;;;;;;;26.74;49.88;99102.19;2088256;28;19913;-40
2022/08/17 02:56:39;;;;;;;;;;;;;;;26.76;49.76;99105.59;2088156;28;19962;-40
2022/08/17 02:57:39;;;;;;;;;;;;;;;26.74;50.05;99102.19;2091457;28;20630;-40
2022/08/17 02:58:40;;;;;;;;;;;;;;;26.75;49.82;99108.56;2084855;28;20043;-40
2022/08/17 02:59:40;;;;;;;;;;;;;;;26.75;50.07;99108.56;2086454;28;19916;-40
2022/08/17 03:00:42;;;;;;;;;;;;;;;26.76;50.05;99102.81;2096845;28;19913;-40
2022/08/17 03:01:43;;;;;;;;;;;;;;;26.75;49.76;99098.34;2091312;28;19909;-40
2022/08/17 03:02:44;;;;;;;;;;;;;;;26.75;50.04;99105.78;2085800;28;19927;-40
2022/08/17 03:03:44;;;;;;;;;;;;;;;26.75;50.05;99103.03;2078354;28;19916;-40
2022/08/17 03:04:45;;;;;;;;;;;;;;;26.75;49.77;99098.34;2085524;28;19916;-40
2022/08/17 03:05:47;;;;;;;;;;;;;;;26.75;49.80;99092.81;2089128;28;19916;-40
2022/08/17 03:06:47;;;;;;;;;;;;;;;26.75;49.74;99092.81;2085081;28;19920;-40
2022/08/17 03:07:47;;;;;;;;;;;;;;;26.75;49.65;99091.97;2091635;28;19968;-40
2022/08/17 03:08:48;;;;;;;;;;;;;;;26.76;49.97;99093.69;2088329;28;21099;-40
2022/08/17 03:09:48;;;;;;;;;;;;;;;26.75;49.88;99092.81;2086874;28;19908;-40
2022/08/17 03:10:49;;;;;;;;;;;;;;;26.75;49.99;99091.97;2086678;28;20014;-40
2022/08/17 03:11:50;;;;;;;;;;;;;;;26.75;49.82;99095.56;2088069;28;19922;-39
2022/08/17 03:12:51;;;;;;;;;;;;;;;26.75;50.05;99092.81;2082341;28;20382;-40
2022/08/17 03:13:51;;;;;;;;;;;;;;;26.75;49.98;99095.56;2078664;28;19920;-40
2022/08/17 03:14:52;;;;;;;;;;;;;;;26.77;50.00;99095.38;2085006;28;19927;-39
2022/08/17 03:15:52;;;;;;;;;;;;;;;26.75;49.97;99092.81;2089211;28;19966;-40
2022/08/17 03:16:52;;;;;;;;;;;;;;;26.77;49.83;99098.13;2084669;28;19960;-40
2022/08/17 03:17:54;;;;;;;;;;;;;;;26.76;49.88;99104.75;2086442;28;19920;-40
2022/08/17 03:18:54;;;;;;;;;;;;;;;26.76;49.79;99097.28;2085063;28;19920;-40
2022/08/17 03:19:54;;;;;;;;;;;;;;;26.75;49.94;99098.34;2086513;28;20385;-40
2022/08/17 03:20:56;;;;;;;;;;;;;;;26.75;49.84;99098.34;2086776;28;19952;-39
2022/08/17 03:22:00;;;;;;;;;;;;;;;26.76;49.76;99099.22;2086193;28;19912;-40
2022/08/17 03:23:00;;;;;;;;;;;;;;;26.74;49.68;99093.91;2085737;28;20433;-40
2022/08/17 03:24:00;;;;;;;;;;;;;;;26.75;49.95;99097.50;2081813;28;19908;-40
2022/08/17 03:25:01;;;;;;;;;;;;;;;26.73;49.76;99103.28;2074687;28;19921;-40
2022/08/17 03:26:01;;;;;;;;;;;;;;;26.73;49.91;99106.03;2077444;28;19948;-40
2022/08/17 03:27:01;;;;;;;;;;;;;;;26.72;49.96;99099.63;2088050;28;19916;-40
2022/08/17 03:28:03;;;;;;;;;;;;;;;26.73;49.93;99111.56;2091709;28;19953;-40
2022/08/17 03:29:03;;;;;;;;;;;;;;;26.72;49.98;99107.09;2085484;28;20357;-40
2022/08/17 03:30:04;;;;;;;;;;;;;;;26.72;49.82;99104.31;2087934;28;19916;-40
2022/08/17 03:31:05;;;;;;;;;;;;;;;26.71;49.93;99114.53;2085616;28;19928;-40
2022/08/17 03:32:13;;;;;;;;;;;;;;;26.71;50.01;99103.50;2084345;28;20270;-40
2022/08/17 03:33:13;;;;;;;;;;;;;;;26.72;49.90;99109.84;2084432;28;19964;-40
2022/08/17 03:34:14;;;;;;;;;;;;;;;26.72;49.75;99109.84;2094474;28;19959;-40
2022/08/17 03:35:16;;;;;;;;;;;;;;;26.70;50.00;99100.94;2085408;28;20851;-40
2022/08/17 03:36:16;;;;;;;;;;;;;;;26.71;49.72;99108.19;2086281;28;19917;-40
2022/08/17 03:37:16;;;;;;;;;;;;;;;26.72;49.64;99112.63;2090976;28;19912;-40
2022/08/17 03:38:17;;;;;;;;;;;;;;;26.71;49.78;99105.41;2087919;28;19917;-40
2022/08/17 03:39:17;;;;;;;;;;;;;;;26.70;49.63;99107.34;2086735;28;19920;-40
2022/08/17 03:40:17;;;;;;;;;;;;;;;26.72;49.63;99109.84;2088902;28;19971;-40
2022/08/17 03:41:17;;;;;;;;;;;;;;;26.71;49.79;99109.03;2080407;28;19921;-40
2022/08/17 03:42:21;;;;;;;;;;;;;;;26.71;49.91;99108.19;2077847;28;20725;-40
2022/08/17 03:43:22;;;;;;;;;;;;;;;26.72;49.86;99116.22;2087980;28;19988;-40
2022/08/17 03:44:22;;;;;;;;;;;;;;;26.72;49.60;99109.84;2092058;28;20400;-40
2022/08/17 03:57:17;;;;;;;;;;;;;;;26.71;49.80;99108.19;2086830;28;19920;-40
2022/08/17 03:58:18;;;;;;;;;;;;;;;26.71;49.84;99102.66;2093596;28;19931;-40
2022/08/17 03:59:19;;;;;;;;;;;;;;;26.72;49.76;99104.31;2092094;28;20449;-40
2022/08/17 04:00:20;;;;;;;;;;;;;;;26.71;49.85;99105.41;2096015;28;19919;-40
2022/08/17 04:01:22;;;;;;;;;;;;;;;26.71;49.61;99108.19;2089909;28;19943;-40
2022/08/17 04:02:27;;;;;;;;;;;;;;;26.71;49.58;99100.72;2093782;28;20786;-40
2022/08/17 04:03:27;;;;;;;;;;;;;;;26.72;49.77;99105.16;2092535;28;19916;-40
2022/08/17 04:04:28;;;;;;;;;;;;;;;26.72;49.80;99104.31;2091582;28;20656;-40
2022/08/17 04:05:29;;;;;;;;;;;;;;;26.71;49.63;99103.50;2087067;28;19917;-40
2022/08/17 04:06:29;;;;;;;;;;;;;;;26.72;49.72;99107.09;2091811;28;19930;-40
2022/08/17 04:07:30;;;;;;;;;;;;;;;26.70;49.92;99101.81;2092022;28;19916;-40
2022/08/17 04:08:30;;;;;;;;;;;;;;;26.71;49.61;99103.50;2088952;28;19928;-41
2022/08/17 04:09:31;;;;;;;;;;;;;;;26.71;49.59;99108.19;2090649;28;19908;-40
2022/08/17 04:10:31;;;;;;;;;;;;;;;26.71;49.60;99103.50;2086783;28;19943;-40
2022/08/17 04:11:32;;;;;;;;;;;;;;;26.69;49.74;99102.03;2092509;28;19909;-40
2022/08/17 04:12:43;;;;;;;;;;;;;;;26.70;49.61;99107.34;2087629;28;19969;-39
2022/08/17 04:13:44;;;;;;;;;;;;;;;26.69;49.59;99105.63;2086230;28;20396;-40
2022/08/17 04:14:44;;;;;;;;;;;;;;;26.70;49.73;99107.34;2076956;28;19921;-40
2022/08/17 04:15:47;;;;;;;;;;;;;;;26.69;49.83;99105.63;2082373;28;20676;-38
2022/08/17 04:16:48;;;;;;;;;;;;;;;26.70;49.66;99106.47;2085725;28;20409;-40
2022/08/17 04:17:48;;;;;;;;;;;;;;;26.69;49.80;99105.63;2086054;28;19916;-40
2022/08/17 04:18:49;;;;;;;;;;;;;;;26.69;49.93;99104.78;2088809;28;19951;-39
2022/08/17 04:19:49;;;;;;;;;;;;;;;26.68;49.64;99103.09;2090992;28;20078;-40
2022/08/17 04:20:49;;;;;;;;;;;;;;;26.68;49.82;99097.56;2087754;28;19920;-40
2022/08/17 04:21:50;;;;;;;;;;;;;;;26.69;49.89;99100.09;2085869;28;19927;-40
2022/08/17 04:22:56;;;;;;;;;;;;;;;26.67;49.63;99095.88;2085914;28;19916;-40
2022/08/17 04:23:57;;;;;;;;;;;;;;;26.68;49.71;99092.03;2084037;28;20011;-40
2022/08/17 04:24:57;;;;;;;;;;;;;;;26.68;49.92;99094.81;2085424;28;20246;-40
2022/08/17 04:25:58;;;;;;;;;;;;;;;26.67;49.82;99095.88;2091055;28;19916;-40
2022/08/17 04:26:58;;;;;;;;;;;;;;;26.68;49.82;99092.03;2088404;28;19979;-40
2022/08/17 04:27:59;;;;;;;;;;;;;;;26.67;49.56;99095.88;2095028;28;19920;-40
2022/08/17 04:28:59;;;;;;;;;;;;;;;26.68;49.64;99094.81;2091461;28;20370;-40
2022/08/17 04:30:00;;;;;;;;;;;;;;;26.68;49.57;99097.56;2090891;28;19966;-40
2022/08/17 04:31:00;;;;;;;;;;;;;;;26.68;49.52;99092.03;2086271;28;20398;-39
2022/08/17 04:32:01;;;;;;;;;;;;;;;26.68;49.53;99092.03;2087572;28;19917;-40
2022/08/17 04:33:04;;;;;;;;;;;;;;;26.69;49.82;99099.25;2087127;28;19939;-39
2022/08/17 04:34:04;;;;;;;;;;;;;;;26.69;49.56;99093.72;2087252;28;19916;-40
2022/08/17 04:35:05;;;;;;;;;;;;;;;26.69;49.67;99099.25;2088291;28;19921;-40
2022/08/17 04:36:06;;;;;;;;;;;;;;;26.68;49.68;99098.41;2091942;28;19954;-40
2022/08/17 04:37:07;;;;;;;;;;;;;;;26.68;49.79;99105.88;2096085;28;20334;-40
2022/08/17 04:38:09;;;;;;;;;;;;;;;26.69;49.56;99099.25;2090483;28;19965;-40
2022/08/17 04:39:09;;;;;;;;;;;;;;;26.69;49.69;99107.53;2086507;28;20277;-40
2022/08/17 04:43:12;;;;;;;;;;;;;;;26.69;49.84;99107.53;2065779;28;20000;-40
2022/08/17 04:44:13;;;;;;;;;;;;;;;26.69;49.91;99113.06;2063707;28;19928;-40
2022/08/17 04:45:13;;;;;;;;;;;;;;;26.70;49.57;99112.00;2062215;28;19949;-40
2022/08/17 04:46:15;;;;;;;;;;;;;;;26.68;49.85;99112.25;2065870;28;20152;-39
2022/08/17 04:47:15;;;;;;;;;;;;;;;26.68;49.58;99112.25;2069431;28;20447;-40
2022/08/17 04:48:15;;;;;;;;;;;;;;;26.68;49.61;99111.41;2063681;28;19928;-40
2022/08/17 04:49:16;;;;;;;;;;;;;;;26.68;49.86;99103.09;2087809;28;19916;-40
2022/08/17 04:50:16;;;;;;;;;;;;;;;26.68;49.56;99097.56;2086607;28;19977;-39
2022/08/17 04:51:17;;;;;;;;;;;;;;;26.67;49.82;99096.69;2085089;28;19917;-40
2022/08/17 04:52:17;;;;;;;;;;;;;;;26.67;49.80;99101.38;2090203;28;20314;-40
2022/08/17 04:53:18;;;;;;;;;;;;;;;26.67;49.94;99107.75;2088212;28;19916;-40
2022/08/17 04:54:20;;;;;;;;;;;;;;;26.67;49.94;99106.91;2088349;28;19927;-40
2022/08/17 04:55:20;;;;;;;;;;;;;;;26.67;49.75;99104.16;2078290;28;19921;-40
2022/08/17 04:56:22;;;;;;;;;;;;;;;26.67;49.94;99106.91;2080759;28;19932;-40
2022/08/17 04:57:22;;;;;;;;;;;;;;;26.66;49.73;99105.25;2077577;28;19932;-39
2022/08/17 04:58:22;;;;;;;;;;;;;;;26.66;49.86;99108.00;2091109;28;19930;-40
2022/08/17 04:59:23;;;;;;;;;;;;;;;26.65;49.60;99115.44;2093758;28;19955;-40
2022/08/17 05:00:24;;;;;;;;;;;;;;;26.67;49.78;99117.97;2091787;28;20334;-40
2022/08/17 05:01:27;;;;;;;;;;;;;;;26.66;49.66;99110.78;2085722;28;19969;-40
2022/08/17 05:02:27;;;;;;;;;;;;;;;26.66;49.81;99119.06;2087812;28;20167;-40
2022/08/17 05:03:27;;;;;;;;;;;;;;;26.65;49.69;99114.59;2091946;28;19908;-39
2022/08/17 05:04:28;;;;;;;;;;;;;;;26.64;49.69;99113.75;2093655;28;19920;-39
2022/08/17 05:05:33;;;;;;;;;;;;;;;26.64;49.67;99110.13;2085545;28;19917;-40
2022/08/17 05:06:33;;;;;;;;;;;;;;;26.64;49.96;99118.44;2086888;28;19911;-40
2022/08/17 05:07:33;;;;;;;;;;;;;;;26.63;49.93;99113.94;2085386;28;20312;-42
2022/08/17 05:08:33;;;;;;;;;;;;;;;26.63;49.97;99119.47;2093577;28;19916;-40
2022/08/17 05:09:34;;;;;;;;;;;;;;;26.62;49.93;99115.03;2094753;28;19916;-40
2022/08/17 05:10:35;;;;;;;;;;;;;;;26.61;49.71;99108.66;2090372;28;19928;-40
2022/08/17 05:11:36;;;;;;;;;;;;;;;26.60;49.79;99112.47;2085217;28;19950;-39
2022/08/17 05:12:37;;;;;;;;;;;;;;;26.59;49.85;99115.50;2090406;28;20036;-40
2022/08/17 05:13:37;;;;;;;;;;;;;;;26.59;49.86;99116.34;2086218;28;20219;-39
2022/08/17 05:14:37;;;;;;;;;;;;;;;26.59;49.72;99116.34;2087923;28;19916;-40
2022/08/17 05:15:39;;;;;;;;;;;;;;;26.59;49.74;99112.72;2086451;28;19948;-40
2022/08/17 05:16:39;;;;;;;;;;;;;;;26.59;49.73;99113.56;2085853;28;19916;-40
2022/08/17 05:17:39;;;;;;;;;;;;;;;26.58;49.79;99113.78;2096342;28;19923;-40
2022/08/17 05:18:40;;;;;;;;;;;;;;;26.58;50.04;99116.53;2089295;28;20420;-40
2022/08/17 05:19:40;;;;;;;;;;;;;;;26.58;50.07;99119.31;2092824;28;20210;-40
2022/08/17 05:20:41;;;;;;;;;;;;;;;26.57;49.89;99120.38;2078385;28;20400;-40
2022/08/17 05:21:41;;;;;;;;;;;;;;;26.58;49.86;99124.84;2086789;28;19924;-40
2022/08/17 05:22:51;;;;;;;;;;;;;;;26.57;49.92;99125.91;2094213;28;19920;-40
2022/08/17 05:23:52;;;;;;;;;;;;;;;26.57;50.05;99128.69;2088896;28;20379;-40
2022/08/17 05:24:52;;;;;;;;;;;;;;;26.56;49.75;99124.25;2083837;28;19920;-40
2022/08/17 05:25:54;;;;;;;;;;;;;;;26.56;49.81;99127.00;2094457;28;20108;-40
2022/08/17 05:26:54;;;;;;;;;;;;;;;26.56;50.16;99132.53;2082610;28;20428;-40
2022/08/17 05:27:55;;;;;;;;;;;;;;;26.57;49.80;99134.22;2084483;28;19916;-40
2022/08/17 05:28:57;;;;;;;;;;;;;;;26.55;49.98;99125.28;2089269;28;19931;-40
2022/08/17 05:29:57;;;;;;;;;;;;;;;26.56;49.88;99127.00;2088508;28;20666;-40
2022/08/17 05:31:00;;;;;;;;;;;;;;;26.57;49.73;99134.22;2086130;28;19916;-40
2022/08/17 05:32:07;;;;;;;;;;;;;;;26.56;50.08;99127.84;2088076;28;20065;-39
2022/08/17 05:33:09;;;;;;;;;;;;;;;26.57;49.98;99128.69;2086253;28;19920;-40
2022/08/17 05:34:10;;;;;;;;;;;;;;;26.57;49.88;99134.22;2085599;28;19916;-40
2022/08/17 05:35:10;;;;;;;;;;;;;;;26.58;49.96;99141.41;2086131;28;20804;-40